sensor_id;sensor_type;location;lat;lon;timestamp;P1;durP1;ratioP1;P2;durP2;ratioP2
67051;SDS011;53957;47.222;18.670;2023-03-01T00:00:22;11.77;;;7.90;;
67051;SDS011;53957;47.222;18.670;2023-03-01T00:03:35;13.60;;;7.40;;
67051;SDS011;53957;47.222;18.670;2023-03-01T00:06:39;12.95;;;8.23;;
67051;SDS011;53957;47.222;18.670;2023-03-01T00:09:42;13.70;;;7.57;;
67051;SDS011;53957;47.222;18.670;2023-03-01T00:13:08;13.10;;;8.60;;
67051;SDS011;53957;47.222;18.670;2023-03-01T00:16:34;16.65;;;8.32;;
67051;SDS011;53957;47.222;18.670;2023-03-01T00:20:21;15.73;;;7.70;;
67051;SDS011;53957;47.222;18.670;2023-03-01T00:23:46;13.13;;;8.30;;
67051;SDS011;53957;47.222;18.670;2023-03-01T00:27:10;10.65;;;7.90;;
67051;SDS011;53957;47.222;18.670;2023-03-01T00:30:29;11.88;;;8.40;;
67051;SDS011;53957;47.222;18.670;2023-03-01T00:33:32;13.40;;;8.20;;
67051;SDS011;53957;47.222;18.670;2023-03-01T00:37:17;14.95;;;8.48;;
67051;SDS011;53957;47.222;18.670;2023-03-01T00:40:22;10.73;;;8.00;;
67051;SDS011;53957;47.222;18.670;2023-03-01T00:43:25;11.55;;;8.50;;
67051;SDS011;53957;47.222;18.670;2023-03-01T00:47:08;11.60;;;8.48;;
67051;SDS011;53957;47.222;18.670;2023-03-01T00:50:31;10.07;;;7.93;;
67051;SDS011;53957;47.222;18.670;2023-03-01T00:53:54;10.50;;;8.13;;
67051;SDS011;53957;47.222;18.670;2023-03-01T00:57:02;11.20;;;7.87;;
67051;SDS011;53957;47.222;18.670;2023-03-01T01:00:17;11.18;;;7.70;;
67051;SDS011;53957;47.222;18.670;2023-03-01T01:04:06;11.12;;;8.20;;
67051;SDS011;53957;47.222;18.670;2023-03-01T01:07:12;12.37;;;7.45;;
67051;SDS011;53957;47.222;18.670;2023-03-01T01:10:19;12.65;;;8.20;;
67051;SDS011;53957;47.222;18.670;2023-03-01T01:13:30;14.55;;;9.35;;
67051;SDS011;53957;47.222;18.670;2023-03-01T01:16:37;13.45;;;8.95;;
67051;SDS011;53957;47.222;18.670;2023-03-01T01:20:00;13.68;;;8.00;;
67051;SDS011;53957;47.222;18.670;2023-03-01T01:23:24;14.52;;;9.25;;
67051;SDS011;53957;47.222;18.670;2023-03-01T01:26:28;12.90;;;7.72;;
67051;SDS011;53957;47.222;18.670;2023-03-01T01:30:10;10.20;;;7.05;;
67051;SDS011;53957;47.222;18.670;2023-03-01T01:33:17;11.75;;;7.60;;
67051;SDS011;53957;47.222;18.670;2023-03-01T01:36:21;12.02;;;8.73;;
67051;SDS011;53957;47.222;18.670;2023-03-01T01:39:29;9.63;;;7.30;;
67051;SDS011;53957;47.222;18.670;2023-03-01T01:42:37;9.65;;;7.78;;
67051;SDS011;53957;47.222;18.670;2023-03-01T01:45:44;7.15;;;5.82;;
67051;SDS011;53957;47.222;18.670;2023-03-01T01:48:49;8.48;;;5.68;;
67051;SDS011;53957;47.222;18.670;2023-03-01T01:52:31;7.50;;;6.00;;
67051;SDS011;53957;47.222;18.670;2023-03-01T01:56:18;8.52;;;6.43;;
67051;SDS011;53957;47.222;18.670;2023-03-01T01:59:42;11.75;;;7.40;;
67051;SDS011;53957;47.222;18.670;2023-03-01T02:02:55;11.15;;;7.32;;
67051;SDS011;53957;47.222;18.670;2023-03-01T02:06:45;14.30;;;7.20;;
67051;SDS011;53957;47.222;18.670;2023-03-01T02:09:56;11.27;;;7.28;;
67051;SDS011;53957;47.222;18.670;2023-03-01T02:13:02;9.00;;;6.90;;
67051;SDS011;53957;47.222;18.670;2023-03-01T02:16:25;11.40;;;6.93;;
67051;SDS011;53957;47.222;18.670;2023-03-01T02:22:43;9.93;;;7.50;;
67051;SDS011;53957;47.222;18.670;2023-03-01T02:25:56;11.32;;;7.60;;
67051;SDS011;53957;47.222;18.670;2023-03-01T02:29:09;10.77;;;7.97;;
67051;SDS011;53957;47.222;18.670;2023-03-01T02:32:26;13.90;;;8.38;;
67051;SDS011;53957;47.222;18.670;2023-03-01T02:35:49;13.52;;;7.72;;
67051;SDS011;53957;47.222;18.670;2023-03-01T02:39:34;10.48;;;7.97;;
67051;SDS011;53957;47.222;18.670;2023-03-01T02:42:55;15.48;;;7.97;;
67051;SDS011;53957;47.222;18.670;2023-03-01T02:46:42;10.55;;;8.07;;
67051;SDS011;53957;47.222;18.670;2023-03-01T02:49:49;10.90;;;7.15;;
67051;SDS011;53957;47.222;18.670;2023-03-01T02:53:22;10.80;;;7.53;;
67051;SDS011;53957;47.222;18.670;2023-03-01T02:56:45;15.85;;;8.95;;
67051;SDS011;53957;47.222;18.670;2023-03-01T03:00:14;14.50;;;7.97;;
67051;SDS011;53957;47.222;18.670;2023-03-01T03:03:24;13.75;;;8.13;;
67051;SDS011;53957;47.222;18.670;2023-03-01T03:06:30;15.27;;;9.10;;
67051;SDS011;53957;47.222;18.670;2023-03-01T03:09:54;10.48;;;7.95;;
67051;SDS011;53957;47.222;18.670;2023-03-01T03:13:14;8.98;;;7.30;;
67051;SDS011;53957;47.222;18.670;2023-03-01T03:16:41;12.02;;;8.82;;
67051;SDS011;53957;47.222;18.670;2023-03-01T03:19:56;12.43;;;8.35;;
67051;SDS011;53957;47.222;18.670;2023-03-01T03:23:01;15.80;;;8.18;;
67051;SDS011;53957;47.222;18.670;2023-03-01T03:26:05;15.75;;;8.30;;
67051;SDS011;53957;47.222;18.670;2023-03-01T03:29:09;13.02;;;8.73;;
67051;SDS011;53957;47.222;18.670;2023-03-01T03:32:32;12.52;;;8.52;;
67051;SDS011;53957;47.222;18.670;2023-03-01T03:35:53;15.40;;;8.95;;
67051;SDS011;53957;47.222;18.670;2023-03-01T03:39:39;13.23;;;8.05;;
67051;SDS011;53957;47.222;18.670;2023-03-01T03:43:02;10.50;;;7.95;;
67051;SDS011;53957;47.222;18.670;2023-03-01T03:46:15;11.07;;;7.68;;
67051;SDS011;53957;47.222;18.670;2023-03-01T03:49:19;13.62;;;9.23;;
67051;SDS011;53957;47.222;18.670;2023-03-01T03:52:26;15.63;;;8.75;;
67051;SDS011;53957;47.222;18.670;2023-03-01T03:55:38;12.27;;;8.32;;
67051;SDS011;53957;47.222;18.670;2023-03-01T03:58:51;11.27;;;8.43;;
67051;SDS011;53957;47.222;18.670;2023-03-01T04:01:55;10.95;;;7.95;;
67051;SDS011;53957;47.222;18.670;2023-03-01T04:05:26;14.87;;;8.48;;
67051;SDS011;53957;47.222;18.670;2023-03-01T04:08:32;12.35;;;8.93;;
67051;SDS011;53957;47.222;18.670;2023-03-01T04:11:36;11.63;;;8.25;;
67051;SDS011;53957;47.222;18.670;2023-03-01T04:14:51;11.93;;;7.95;;
67051;SDS011;53957;47.222;18.670;2023-03-01T04:17:58;10.75;;;7.60;;
67051;SDS011;53957;47.222;18.670;2023-03-01T04:21:22;11.20;;;7.75;;
67051;SDS011;53957;47.222;18.670;2023-03-01T04:24:26;11.93;;;8.43;;
67051;SDS011;53957;47.222;18.670;2023-03-01T04:27:33;12.57;;;8.95;;
67051;SDS011;53957;47.222;18.670;2023-03-01T04:31:01;10.85;;;8.45;;
67051;SDS011;53957;47.222;18.670;2023-03-01T04:34:15;14.40;;;8.68;;
67051;SDS011;53957;47.222;18.670;2023-03-01T04:37:20;15.25;;;9.52;;
67051;SDS011;53957;47.222;18.670;2023-03-01T04:40:24;13.30;;;8.80;;
67051;SDS011;53957;47.222;18.670;2023-03-01T04:43:49;11.38;;;7.82;;
67051;SDS011;53957;47.222;18.670;2023-03-01T04:46:53;16.35;;;9.38;;
67051;SDS011;53957;47.222;18.670;2023-03-01T04:50:17;13.52;;;9.40;;
67051;SDS011;53957;47.222;18.670;2023-03-01T04:53:42;14.82;;;9.60;;
67051;SDS011;53957;47.222;18.670;2023-03-01T04:57:10;12.68;;;9.82;;
67051;SDS011;53957;47.222;18.670;2023-03-01T05:00:37;14.90;;;9.50;;
67051;SDS011;53957;47.222;18.670;2023-03-01T05:03:42;15.63;;;9.27;;
67051;SDS011;53957;47.222;18.670;2023-03-01T05:07:06;16.15;;;9.23;;
67051;SDS011;53957;47.222;18.670;2023-03-01T05:10:32;12.05;;;8.55;;
67051;SDS011;53957;47.222;18.670;2023-03-01T05:13:39;14.95;;;9.50;;
67051;SDS011;53957;47.222;18.670;2023-03-01T05:16:47;15.50;;;9.20;;
67051;SDS011;53957;47.222;18.670;2023-03-01T05:20:10;13.13;;;8.90;;
67051;SDS011;53957;47.222;18.670;2023-03-01T05:23:53;12.23;;;8.32;;
67051;SDS011;53957;47.222;18.670;2023-03-01T05:26:57;15.35;;;9.43;;
67051;SDS011;53957;47.222;18.670;2023-03-01T05:30:42;17.77;;;10.43;;
67051;SDS011;53957;47.222;18.670;2023-03-01T05:34:04;15.68;;;11.52;;
67051;SDS011;53957;47.222;18.670;2023-03-01T05:37:10;17.92;;;10.70;;
67051;SDS011;53957;47.222;18.670;2023-03-01T05:40:52;9.60;;;8.15;;
67051;SDS011;53957;47.222;18.670;2023-03-01T05:44:18;11.60;;;8.30;;
67051;SDS011;53957;47.222;18.670;2023-03-01T05:47:42;14.98;;;8.50;;
67051;SDS011;53957;47.222;18.670;2023-03-01T05:50:50;19.98;;;8.07;;
67051;SDS011;53957;47.222;18.670;2023-03-01T05:54:13;13.88;;;8.05;;
67051;SDS011;53957;47.222;18.670;2023-03-01T05:57:22;12.75;;;8.55;;
67051;SDS011;53957;47.222;18.670;2023-03-01T06:00:25;14.93;;;9.13;;
67051;SDS011;53957;47.222;18.670;2023-03-01T06:03:49;14.93;;;8.23;;
67051;SDS011;53957;47.222;18.670;2023-03-01T06:07:12;10.68;;;8.13;;
67051;SDS011;53957;47.222;18.670;2023-03-01T06:10:17;10.65;;;7.37;;
67051;SDS011;53957;47.222;18.670;2023-03-01T06:13:22;11.45;;;8.20;;
67051;SDS011;53957;47.222;18.670;2023-03-01T06:16:46;12.27;;;7.68;;
67051;SDS011;53957;47.222;18.670;2023-03-01T06:19:50;10.50;;;8.20;;
67051;SDS011;53957;47.222;18.670;2023-03-01T06:22:54;12.75;;;8.38;;
67051;SDS011;53957;47.222;18.670;2023-03-01T06:25:58;11.32;;;7.60;;
67051;SDS011;53957;47.222;18.670;2023-03-01T06:29:21;14.38;;;8.40;;
67051;SDS011;53957;47.222;18.670;2023-03-01T06:32:25;13.07;;;7.85;;
67051;SDS011;53957;47.222;18.670;2023-03-01T06:35:29;12.93;;;8.63;;
67051;SDS011;53957;47.222;18.670;2023-03-01T06:38:33;10.70;;;8.07;;
67051;SDS011;53957;47.222;18.670;2023-03-01T06:41:56;17.65;;;10.32;;
67051;SDS011;53957;47.222;18.670;2023-03-01T06:44:59;16.37;;;9.68;;
67051;SDS011;53957;47.222;18.670;2023-03-01T06:48:05;11.20;;;8.43;;
67051;SDS011;53957;47.222;18.670;2023-03-01T06:51:09;15.15;;;9.52;;
67051;SDS011;53957;47.222;18.670;2023-03-01T06:54:18;14.20;;;9.05;;
67051;SDS011;53957;47.222;18.670;2023-03-01T06:57:45;16.33;;;9.85;;
67051;SDS011;53957;47.222;18.670;2023-03-01T07:00:53;15.25;;;9.60;;
67051;SDS011;53957;47.222;18.670;2023-03-01T07:03:57;14.80;;;9.05;;
67051;SDS011;53957;47.222;18.670;2023-03-01T07:07:20;15.18;;;9.35;;
67051;SDS011;53957;47.222;18.670;2023-03-01T07:10:32;11.02;;;7.95;;
67051;SDS011;53957;47.222;18.670;2023-03-01T07:13:44;23.65;;;8.85;;
67051;SDS011;53957;47.222;18.670;2023-03-01T07:16:51;13.60;;;8.95;;
67051;SDS011;53957;47.222;18.670;2023-03-01T07:20:15;14.20;;;8.30;;
67051;SDS011;53957;47.222;18.670;2023-03-01T07:23:28;12.37;;;8.55;;
67051;SDS011;53957;47.222;18.670;2023-03-01T07:26:32;14.95;;;8.85;;
67051;SDS011;53957;47.222;18.670;2023-03-01T07:29:35;12.60;;;8.52;;
67051;SDS011;53957;47.222;18.670;2023-03-01T07:32:58;11.80;;;9.00;;
67051;SDS011;53957;47.222;18.670;2023-03-01T07:36:02;12.30;;;7.85;;
67051;SDS011;53957;47.222;18.670;2023-03-01T18:29:55;20.17;;;9.45;;
67051;SDS011;53957;47.222;18.670;2023-03-01T18:32:58;16.15;;;10.93;;
67051;SDS011;53957;47.222;18.670;2023-03-01T18:36:01;15.73;;;10.32;;
67051;SDS011;53957;47.222;18.670;2023-03-01T18:39:05;16.80;;;10.00;;
67051;SDS011;53957;47.222;18.670;2023-03-01T18:45:48;21.33;;;10.70;;
67051;SDS011;53957;47.222;18.670;2023-03-01T18:48:52;20.20;;;10.95;;
67051;SDS011;53957;47.222;18.670;2023-03-01T18:51:56;19.80;;;11.85;;
67051;SDS011;53957;47.222;18.670;2023-03-01T18:55:00;26.67;;;13.32;;
67051;SDS011;53957;47.222;18.670;2023-03-01T18:58:03;23.62;;;12.60;;
67051;SDS011;53957;47.222;18.670;2023-03-01T19:01:14;23.40;;;11.50;;
67051;SDS011;53957;47.222;18.670;2023-03-01T19:04:27;23.62;;;12.43;;
67051;SDS011;53957;47.222;18.670;2023-03-01T19:07:59;17.20;;;11.75;;
67051;SDS011;53957;47.222;18.670;2023-03-01T19:11:15;20.88;;;10.98;;
67051;SDS011;53957;47.222;18.670;2023-03-01T19:14:41;19.60;;;12.05;;
67051;SDS011;53957;47.222;18.670;2023-03-01T19:17:44;23.23;;;12.40;;
67051;SDS011;53957;47.222;18.670;2023-03-01T19:21:00;26.08;;;13.32;;
67051;SDS011;53957;47.222;18.670;2023-03-01T19:24:44;24.83;;;12.68;;
67051;SDS011;53957;47.222;18.670;2023-03-01T19:28:09;27.48;;;12.45;;
67051;SDS011;53957;47.222;18.670;2023-03-01T19:35:57;21.50;;;12.13;;
67051;SDS011;53957;47.222;18.670;2023-03-01T19:39:25;27.20;;;13.80;;
67051;SDS011;53957;47.222;18.670;2023-03-01T19:50:04;24.37;;;13.27;;
67051;SDS011;53957;47.222;18.670;2023-03-01T19:53:28;20.10;;;12.77;;
67051;SDS011;53957;47.222;18.670;2023-03-01T19:56:47;19.05;;;11.60;;
67051;SDS011;53957;47.222;18.670;2023-03-01T20:00:34;21.98;;;12.50;;
67051;SDS011;53957;47.222;18.670;2023-03-01T20:15:19;21.20;;;10.88;;
67051;SDS011;53957;47.222;18.670;2023-03-01T20:18:26;18.48;;;10.43;;
67051;SDS011;53957;47.222;18.670;2023-03-01T20:21:49;19.80;;;11.05;;
67051;SDS011;53957;47.222;18.670;2023-03-01T20:24:52;20.60;;;11.73;;
67051;SDS011;53957;47.222;18.670;2023-03-01T20:28:40;14.80;;;10.40;;
67051;SDS011;53957;47.222;18.670;2023-03-01T20:32:24;15.45;;;10.45;;
67051;SDS011;53957;47.222;18.670;2023-03-01T20:35:52;15.45;;;10.80;;
67051;SDS011;53957;47.222;18.670;2023-03-01T20:39:38;18.70;;;10.98;;
67051;SDS011;53957;47.222;18.670;2023-03-01T20:42:41;21.05;;;11.23;;
67051;SDS011;53957;47.222;18.670;2023-03-01T20:45:44;21.42;;;11.80;;
67051;SDS011;53957;47.222;18.670;2023-03-01T20:48:47;21.50;;;12.70;;
67051;SDS011;53957;47.222;18.670;2023-03-01T20:51:52;23.95;;;10.57;;
67051;SDS011;53957;47.222;18.670;2023-03-01T20:54:55;17.45;;;10.20;;
67051;SDS011;53957;47.222;18.670;2023-03-01T20:58:14;16.85;;;9.88;;
67051;SDS011;53957;47.222;18.670;2023-03-01T21:01:37;21.02;;;11.07;;
67051;SDS011;53957;47.222;18.670;2023-03-01T21:05:20;17.27;;;10.07;;
67051;SDS011;53957;47.222;18.670;2023-03-01T21:08:29;15.95;;;10.00;;
67051;SDS011;53957;47.222;18.670;2023-03-01T21:12:13;18.65;;;8.57;;
67051;SDS011;53957;47.222;18.670;2023-03-01T21:15:36;13.93;;;9.40;;
67051;SDS011;53957;47.222;18.670;2023-03-01T21:18:39;19.48;;;9.20;;
67051;SDS011;53957;47.222;18.670;2023-03-01T21:21:43;11.98;;;9.10;;
67051;SDS011;53957;47.222;18.670;2023-03-01T21:24:47;17.48;;;10.35;;
67051;SDS011;53957;47.222;18.670;2023-03-01T21:27:52;17.45;;;10.55;;
67051;SDS011;53957;47.222;18.670;2023-03-01T21:30:55;19.35;;;12.00;;
67051;SDS011;53957;47.222;18.670;2023-03-01T21:34:18;19.77;;;10.82;;
67051;SDS011;53957;47.222;18.670;2023-03-01T21:37:21;16.08;;;10.90;;
67051;SDS011;53957;47.222;18.670;2023-03-01T21:40:50;23.75;;;12.52;;
67051;SDS011;53957;47.222;18.670;2023-03-01T21:43:53;19.10;;;10.52;;
67051;SDS011;53957;47.222;18.670;2023-03-01T21:46:59;18.02;;;10.02;;
67051;SDS011;53957;47.222;18.670;2023-03-01T21:50:42;20.90;;;10.90;;
67051;SDS011;53957;47.222;18.670;2023-03-01T21:53:45;15.38;;;9.75;;
67051;SDS011;53957;47.222;18.670;2023-03-01T21:56:48;14.13;;;9.65;;
67051;SDS011;53957;47.222;18.670;2023-03-01T22:00:12;19.23;;;11.23;;
67051;SDS011;53957;47.222;18.670;2023-03-01T22:03:37;19.37;;;11.88;;
67051;SDS011;53957;47.222;18.670;2023-03-01T22:06:49;16.00;;;9.95;;
67051;SDS011;53957;47.222;18.670;2023-03-01T22:09:56;22.35;;;11.68;;
67051;SDS011;53957;47.222;18.670;2023-03-01T22:12:59;19.65;;;10.80;;
67051;SDS011;53957;47.222;18.670;2023-03-01T22:16:02;21.12;;;10.63;;
67051;SDS011;53957;47.222;18.670;2023-03-01T22:19:06;14.20;;;10.55;;
67051;SDS011;53957;47.222;18.670;2023-03-01T22:22:30;20.12;;;11.40;;
67051;SDS011;53957;47.222;18.670;2023-03-01T22:25:39;13.98;;;10.25;;
67051;SDS011;53957;47.222;18.670;2023-03-01T22:28:43;14.68;;;10.80;;
67051;SDS011;53957;47.222;18.670;2023-03-01T22:31:48;16.73;;;10.32;;
67051;SDS011;53957;47.222;18.670;2023-03-01T22:35:29;16.05;;;8.40;;
67051;SDS011;53957;47.222;18.670;2023-03-01T22:42:38;12.98;;;9.55;;
67051;SDS011;53957;47.222;18.670;2023-03-01T22:45:42;11.77;;;8.45;;
67051;SDS011;53957;47.222;18.670;2023-03-01T22:49:24;14.85;;;9.02;;
67051;SDS011;53957;47.222;18.670;2023-03-01T22:52:28;10.98;;;8.23;;
67051;SDS011;53957;47.222;18.670;2023-03-01T22:55:34;16.80;;;9.48;;
67051;SDS011;53957;47.222;18.670;2023-03-01T22:59:02;15.18;;;8.75;;
67051;SDS011;53957;47.222;18.670;2023-03-01T23:02:11;10.00;;;8.27;;
67051;SDS011;53957;47.222;18.670;2023-03-01T23:05:19;11.95;;;8.27;;
67051;SDS011;53957;47.222;18.670;2023-03-01T23:08:23;16.33;;;7.43;;
67051;SDS011;53957;47.222;18.670;2023-03-01T23:11:27;8.50;;;7.62;;
67051;SDS011;53957;47.222;18.670;2023-03-01T23:14:35;15.73;;;9.35;;
67051;SDS011;53957;47.222;18.670;2023-03-01T23:17:59;14.57;;;8.45;;
67051;SDS011;53957;47.222;18.670;2023-03-01T23:21:06;14.02;;;7.80;;
67051;SDS011;53957;47.222;18.670;2023-03-01T23:24:14;13.00;;;8.27;;
67051;SDS011;53957;47.222;18.670;2023-03-01T23:27:18;12.75;;;7.85;;
67051;SDS011;53957;47.222;18.670;2023-03-01T23:30:23;10.00;;;7.53;;
67051;SDS011;53957;47.222;18.670;2023-03-01T23:33:26;10.50;;;7.78;;
67051;SDS011;53957;47.222;18.670;2023-03-01T23:36:33;13.43;;;8.98;;
67051;SDS011;53957;47.222;18.670;2023-03-01T23:39:37;11.82;;;8.55;;
67051;SDS011;53957;47.222;18.670;2023-03-01T23:42:42;14.77;;;8.40;;
67051;SDS011;53957;47.222;18.670;2023-03-01T23:45:46;12.10;;;8.20;;
67051;SDS011;53957;47.222;18.670;2023-03-01T23:49:13;9.80;;;7.53;;
67051;SDS011;53957;47.222;18.670;2023-03-01T23:52:58;11.80;;;8.20;;
67051;SDS011;53957;47.222;18.670;2023-03-01T23:56:03;10.63;;;7.60;;
67051;SDS011;53957;47.222;18.670;2023-03-01T23:59:35;10.00;;;7.37;;
